Ledeberg, Belgium
Current Conditions -  °F | °C
As of 1:55 PM on Saturday 25 Oct 2014 (Local Time) from EHFS Reporting Station
Broken Clouds Broken Clouds  
Wind Chill: 59°   Ceiling: 4100
Heat Index: 59°   Visibility: 6mi
Dew Point: 46°   Wind: 17mph
Humidity: 63%   Direction: 270°W
Pressure: 30.09"   Gusts: NA
Location:  51.04°N, 3.74°E
Report Text: EHFS 251155Z AUTO 27015KT 9999 FEW030/// SCT035/// BKN041///15/08 Q1019
Loading
Personal Weather Stations






























Interactive Weather Map
Tropical Storm Tracking
New forecast layout! Learn more

10-Day Weather Forecast

Advertisements
Track Severe Weather on mobile